Time;durP1;ratioP1;P1;durP2;ratioP2;P2;SDS_P1;SDS_P2;PMS_P1;PMS_P2;Temp;Humidity;BMP_temperature;BMP_pressure;BME280_temperature;BME280_humidity;BME280_pressure;Samples;Min_cycle;Max_cycle;Signal;HPM_P1;HPM_P2
2024/04/04 00:02:25;;;;;;;5.00;4.90;;;12.20;65.50;;;;;;5051850;28;20505;-81
2024/04/04 00:04:59;;;;;;;6.80;5.50;;;12.30;14.60;;;;;;5055243;28;20542;-80
2024/04/04 00:07:25;;;;;;;4.73;4.63;;;12.30;14.90;;;;;;5058888;28;20500;-80
2024/04/04 00:09:53;;;;;;;5.40;4.90;;;12.30;1.00;;;;;;5036121;28;21031;-81
2024/04/04 00:12:19;;;;;;;4.60;4.40;;;12.20;1.00;;;;;;5055139;28;20439;-79
2024/04/04 00:14:47;;;;;;;4.90;4.80;;;12.30;25.40;;;;;;5053555;28;20469;-84
2024/04/04 00:17:14;;;;;;;5.30;5.00;;;12.30;1.00;;;;;;5051162;28;20525;-79
2024/04/04 00:19:42;;;;;;;5.30;5.10;;;12.30;1.00;;;;;;5053358;28;20571;-79
2024/04/04 00:22:08;;;;;;;4.30;4.20;;;12.30;1.00;;;;;;5055552;28;21268;-81
2024/04/04 00:24:35;;;;;;;4.93;4.73;;;12.30;1.00;;;;;;5059108;28;20446;-80
2024/04/04 00:27:01;;;;;;;5.27;4.47;;;12.30;1.00;;;;;;5055883;28;21000;-79
2024/04/04 00:29:28;;;;;;;5.23;4.97;;;12.30;1.00;;;;;;5054163;28;20479;-79
2024/04/04 00:31:54;;;;;;;5.10;4.70;;;12.30;1.00;;;;;;5056070;28;20442;-81
2024/04/04 00:34:23;;;;;;;4.60;4.40;;;12.30;1.00;;;;;;5054432;28;20547;-79
2024/04/04 00:36:49;;;;;;;4.83;4.57;;;12.30;1.00;;;;;;5057027;28;21262;-79
2024/04/04 00:39:16;;;;;;;4.60;4.50;;;12.30;1.00;;;;;;5055477;28;20564;-78
2024/04/04 00:41:43;;;;;;;4.90;4.70;;;12.20;1.00;;;;;;5054229;28;20980;-81
2024/04/04 00:44:10;;;;;;;4.83;4.50;;;12.30;1.00;;;;;;5056302;28;22439;-79
2024/04/04 00:46:36;;;;;;;4.80;4.60;;;12.20;1.00;;;;;;5053764;28;20494;-80
2024/04/04 00:49:04;;;;;;;4.80;4.70;;;12.30;1.00;;;;;;5053400;28;20488;-80
2024/04/04 00:51:31;;;;;;;4.43;4.30;;;12.20;1.00;;;;;;5053969;28;20440;-81
2024/04/04 00:53:59;;;;;;;5.30;5.10;;;12.20;1.00;;;;;;5052014;28;20451;-81
2024/04/04 00:56:25;;;;;;;4.50;4.30;;;12.20;1.00;;;;;;5039503;28;20961;-80
2024/04/04 00:58:53;;;;;;;5.00;4.70;;;12.20;99.90;;;;;;5051695;28;20463;-79
2024/04/04 01:01:19;;;;;;;4.93;4.70;;;12.10;99.90;;;;;;5055725;28;20451;-80
2024/04/04 01:03:47;;;;;;;4.50;4.20;;;12.20;1.00;;;;;;5055161;28;20444;-79
2024/04/04 01:06:13;;;;;;;4.70;4.50;;;12.20;99.90;;;;;;5040166;28;20443;-79
2024/04/04 01:08:41;;;;;;;4.57;4.27;;;12.20;99.90;;;;;;5055602;28;20471;-80
2024/04/04 01:11:08;;;;;;;4.30;4.20;;;12.20;99.90;;;;;;5055095;28;20482;-79
2024/04/04 01:13:36;;;;;;;4.53;4.33;;;12.20;99.90;;;;;;5055006;28;21307;-79
2024/04/04 01:16:03;;;;;;;5.63;5.33;;;12.20;99.90;;;;;;5056406;28;20444;-78
2024/04/04 01:18:30;;;;;;;4.77;4.47;;;12.20;99.90;;;;;;5039783;28;20495;-79
2024/04/04 01:20:56;;;;;;;4.47;4.37;;;12.20;99.90;;;;;;5052829;28;20560;-80
2024/04/04 01:23:23;;;;;;;5.27;4.90;;;12.20;1.00;;;;;;5051401;28;20571;-79
2024/04/04 01:25:50;;;;;;;4.23;4.10;;;12.20;99.90;;;;;;5052542;28;20494;-78
2024/04/04 01:28:19;;;;;;;4.30;4.10;;;12.20;1.00;;;;;;5036034;28;20926;-82
2024/04/04 01:30:45;;;;;;;4.77;4.47;;;12.20;99.90;;;;;;5071335;28;20480;-78
2024/04/04 01:33:12;;;;;;;4.60;4.50;;;12.20;1.00;;;;;;5053965;28;20473;-78
2024/04/04 01:35:38;;;;;;;4.50;4.30;;;12.20;1.00;;;;;;5058907;28;20538;-79
2024/04/04 01:38:06;;;;;;;4.93;4.73;;;12.20;99.90;;;;;;5051063;28;20523;-80
2024/04/04 01:40:32;;;;;;;4.87;4.57;;;12.20;1.00;;;;;;5053569;28;20519;-80
2024/04/04 01:43:02;;;;;;;4.20;4.10;;;12.30;1.00;;;;;;5051973;28;20546;-82
2024/04/04 01:45:28;;;;;;;4.40;4.30;;;12.20;99.90;;;;;;5051711;28;21084;-81
2024/04/04 01:47:55;;;;;;;4.43;4.30;;;12.20;1.00;;;;;;5058257;28;20478;-78
2024/04/04 01:50:21;;;;;;;4.63;4.43;;;12.30;1.00;;;;;;5059592;28;20480;-81
2024/04/04 01:52:48;;;;;;;4.53;4.27;;;12.20;1.00;;;;;;5057008;28;21087;-82
2024/04/04 01:55:15;;;;;;;4.50;4.30;;;12.20;1.00;;;;;;5057826;28;21095;-78
2024/04/04 01:57:42;;;;;;;4.60;4.40;;;12.20;1.00;;;;;;5054471;28;20888;-79
2024/04/04 02:00:11;;;;;;;4.60;4.40;;;12.20;53.70;;;;;;5054486;28;20576;-79
2024/04/04 02:02:38;;;;;;;5.30;5.20;;;12.10;99.90;;;;;;5054093;28;20556;-80
2024/04/04 02:05:05;;;;;;;5.70;5.40;;;12.10;99.90;;;;;;5059303;28;20455;-81
2024/04/04 02:07:33;;;;;;;5.40;5.20;;;12.10;99.90;;;;;;5056938;28;20536;-81
2024/04/04 02:10:00;;;;;;;5.93;5.53;;;12.10;99.90;;;;;;5055779;28;20500;-80
2024/04/04 02:12:28;;;;;;;6.53;6.10;;;12.10;99.90;;;;;;5054457;28;20548;-78
2024/04/04 02:14:54;;;;;;;5.50;5.30;;;12.10;99.90;;;;;;5062460;28;20889;-84
2024/04/04 02:17:23;;;;;;;5.90;5.70;;;12.10;1.00;;;;;;5058806;28;20483;-82
2024/04/04 02:19:49;;;;;;;5.80;5.57;;;12.10;99.90;;;;;;5053972;28;20473;-80
2024/04/04 02:22:16;;;;;;;5.10;4.90;;;12.00;99.90;;;;;;5056253;28;20544;-83
2024/04/04 02:24:43;;;;;;;5.07;4.93;;;12.10;1.00;;;;;;5058653;28;20534;-78
2024/04/04 02:27:11;;;;;;;5.10;4.90;;;12.00;99.90;;;;;;5057788;28;20516;-80
2024/04/04 02:29:37;;;;;;;4.87;4.70;;;12.00;99.90;;;;;;5055947;28;20474;-80
2024/04/04 02:32:04;;;;;;;5.43;5.30;;;11.90;1.00;;;;;;5059097;28;20443;-78
2024/04/04 02:34:32;;;;;;;4.60;4.43;;;12.00;1.00;;;;;;5060405;28;20490;-80
2024/04/04 02:37:00;;;;;;;4.90;4.70;;;12.00;99.90;;;;;;5056746;28;20454;-80
2024/04/04 02:39:28;;;;;;;5.23;4.83;;;12.10;1.00;;;;;;5053992;28;20518;-79
2024/04/04 02:41:55;;;;;;;4.93;4.73;;;12.00;99.90;;;;;;5057027;28;20969;-83
2024/04/04 02:44:21;;;;;;;5.00;4.80;;;12.00;99.90;;;;;;5060312;28;20451;-78
2024/04/04 02:46:49;;;;;;;5.30;5.00;;;12.00;99.90;;;;;;5057364;28;20458;-79
2024/04/04 02:49:15;;;;;;;5.53;5.23;;;12.10;99.90;;;;;;5055827;28;20561;-81
2024/04/04 02:51:43;;;;;;;4.97;4.77;;;12.10;99.90;;;;;;5056271;28;20870;-79
2024/04/04 02:54:09;;;;;;;5.60;5.30;;;12.00;1.00;;;;;;5057115;28;20825;-81
2024/04/04 02:56:36;;;;;;;5.60;5.40;;;12.00;99.90;;;;;;5056336;28;20461;-78
2024/04/04 02:59:02;;;;;;;5.67;5.50;;;12.00;1.00;;;;;;5062526;28;20518;-80
2024/04/04 03:01:30;;;;;;;5.40;5.30;;;12.00;1.00;;;;;;5059216;28;20538;-80
2024/04/04 03:03:56;;;;;;;6.43;5.90;;;12.00;1.00;;;;;;5054690;28;20476;-79
2024/04/04 03:06:23;;;;;;;6.07;5.57;;;12.00;1.00;;;;;;5058807;28;20444;-79
2024/04/04 03:08:51;;;;;;;5.93;5.60;;;11.90;99.90;;;;;;5055688;28;20478;-79
2024/04/04 03:11:18;;;;;;;6.57;6.07;;;12.00;1.00;;;;;;5056702;28;20562;-79
2024/04/04 03:13:44;;;;;;;6.17;5.87;;;12.00;1.00;;;;;;5056771;28;20462;-78
2024/04/04 03:16:11;;;;;;;5.77;5.60;;;12.00;1.00;;;;;;5059419;28;20537;-78
2024/04/04 03:18:37;;;;;;;6.20;6.00;;;12.00;99.90;;;;;;5054489;28;20470;-80
2024/04/04 03:21:05;;;;;;;5.60;5.40;;;12.00;99.90;;;;;;5057091;28;21012;-79
2024/04/04 03:23:31;;;;;;;5.93;5.73;;;11.90;1.00;;;;;;5074176;28;20490;-81
2024/04/04 03:26:00;;;;;;;5.47;5.30;;;11.90;1.00;;;;;;5054267;28;20495;-81
2024/04/04 03:28:26;;;;;;;5.67;5.53;;;11.90;1.00;;;;;;5056310;28;20596;-81
2024/04/04 03:30:53;;;;;;;5.50;5.40;;;11.90;99.90;;;;;;5053722;28;20831;-80
2024/04/04 03:33:19;;;;;;;5.50;5.30;;;11.90;1.00;;;;;;5054759;28;20522;-78
2024/04/04 03:35:46;;;;;;;5.73;5.30;;;11.90;1.00;;;;;;5055288;28;20530;-78
2024/04/04 03:38:13;;;;;;;5.13;5.03;;;12.00;99.90;;;;;;5056297;28;20538;-80
2024/04/04 03:40:40;;;;;;;5.03;4.83;;;12.00;1.00;;;;;;5057136;28;20477;-79
2024/04/04 03:43:09;;;;;;;5.07;4.97;;;12.00;99.90;;;;;;5058839;28;20485;-80
2024/04/04 03:45:38;;;;;;;5.37;5.00;;;11.90;1.00;;;;;;5037938;28;20609;-80
2024/04/04 03:48:06;;;;;;;5.60;5.30;;;11.90;1.00;;;;;;5054626;28;20574;-79
2024/04/04 03:50:32;;;;;;;4.87;4.70;;;11.90;1.00;;;;;;5053794;28;20487;-81
2024/04/04 03:52:59;;;;;;;5.07;4.93;;;11.90;1.00;;;;;;5054564;28;20538;-80
2024/04/04 03:55:27;;;;;;;5.20;5.10;;;11.90;1.00;;;;;;5053072;28;20495;-81
2024/04/04 03:57:53;;;;;;;5.10;4.90;;;11.80;1.00;;;;;;5054368;28;20587;-80
2024/04/04 04:00:21;;;;;;;5.33;5.13;;;11.80;1.00;;;;;;5058527;28;20551;-79
2024/04/04 04:02:47;;;;;;;5.00;4.90;;;11.90;1.00;;;;;;5049621;28;20478;-79
2024/04/04 04:05:15;;;;;;;5.30;5.13;;;11.90;99.90;;;;;;5053894;28;20546;-80
2024/04/04 04:07:41;;;;;;;5.23;5.03;;;11.90;1.00;;;;;;5061072;28;20553;-79
2024/04/04 04:10:09;;;;;;;6.00;5.73;;;11.90;1.00;;;;;;5052771;28;20482;-79
2024/04/04 04:12:36;;;;;;;5.07;4.97;;;11.80;1.00;;;;;;5057072;28;20566;-80
2024/04/04 04:15:03;;;;;;;5.63;5.53;;;11.90;99.90;;;;;;5055131;28;20489;-81
2024/04/04 04:17:31;;;;;;;5.20;5.10;;;11.90;99.90;;;;;;5052915;28;21386;-80
2024/04/04 04:19:59;;;;;;;5.70;5.40;;;11.90;77.50;;;;;;5050580;28;20565;-81
2024/04/04 04:22:25;;;;;;;5.50;5.40;;;11.80;1.00;;;;;;5034831;28;20505;-78
2024/04/04 04:24:52;;;;;;;5.90;5.60;;;11.80;1.00;;;;;;5050972;28;20475;-80
2024/04/04 04:27:18;;;;;;;5.77;5.57;;;11.80;1.00;;;;;;5072071;28;20539;-80
2024/04/04 04:29:45;;;;;;;5.77;5.50;;;11.70;1.00;;;;;;5055549;28;20542;-79
2024/04/04 04:32:12;;;;;;;5.33;5.20;;;11.70;1.00;;;;;;5067782;28;20450;-80
2024/04/04 04:34:40;;;;;;;5.50;5.30;;;11.70;1.00;;;;;;5051487;28;20507;-80
2024/04/04 04:37:07;;;;;;;5.20;5.00;;;11.60;99.90;;;;;;5049808;28;20550;-81
2024/04/04 04:39:34;;;;;;;5.00;4.90;;;11.70;99.90;;;;;;5051247;28;20499;-80
2024/04/04 04:42:00;;;;;;;5.77;5.43;;;11.70;99.90;;;;;;5054293;28;20482;-79
2024/04/04 04:44:28;;;;;;;6.40;6.00;;;11.70;1.00;;;;;;5042196;28;20504;-80
2024/04/04 04:46:55;;;;;;;5.63;5.43;;;11.60;99.90;;;;;;5045981;28;20586;-79
2024/04/04 04:49:22;;;;;;;5.53;5.30;;;11.60;99.90;;;;;;5052176;28;20476;-80
2024/04/04 04:51:50;;;;;;;5.60;5.20;;;11.60;99.90;;;;;;5037272;28;20471;-83
2024/04/04 04:54:17;;;;;;;5.77;5.33;;;11.60;99.90;;;;;;5053704;28;21062;-79
2024/04/04 04:56:43;;;;;;;6.20;5.63;;;11.60;99.90;;;;;;5051235;28;20501;-82
2024/04/04 04:59:10;;;;;;;5.40;5.20;;;11.60;63.50;;;;;;5050597;28;20456;-81
2024/04/04 05:01:37;;;;;;;5.30;5.20;;;11.60;99.90;;;;;;5052352;28;20433;-80
2024/04/04 05:04:05;;;;;;;5.60;5.40;;;11.60;1.00;;;;;;5051341;28;20476;-82
2024/04/04 05:06:31;;;;;;;5.97;5.80;;;11.60;1.00;;;;;;5052171;28;20473;-79
2024/04/04 05:08:59;;;;;;;6.30;6.00;;;11.50;17.80;;;;;;5038096;28;20478;-80
2024/04/04 05:11:26;;;;;;;6.13;5.93;;;11.60;99.90;;;;;;5031495;28;20465;-78
2024/04/04 05:13:54;;;;;;;5.70;5.40;;;11.60;99.90;;;;;;5052667;28;20556;-80
2024/04/04 05:16:20;;;;;;;5.83;5.60;;;11.60;40.00;;;;;;5054931;28;20533;-80
2024/04/04 05:18:47;;;;;;;5.57;5.37;;;11.60;99.90;;;;;;5051661;28;20514;-81
2024/04/04 05:21:13;;;;;;;6.00;5.70;;;11.60;99.90;;;;;;5050534;28;20440;-81
2024/04/04 05:23:40;;;;;;;6.27;5.97;;;11.60;99.90;;;;;;5052442;28;20453;-81
2024/04/04 05:26:08;;;;;;;5.90;5.80;;;11.60;99.90;;;;;;5050702;28;20484;-79
2024/04/04 05:28:36;;;;;;;5.90;5.60;;;11.60;99.90;;;;;;5051167;28;20470;-80
2024/04/04 05:31:02;;;;;;;6.73;6.53;;;11.60;99.90;;;;;;5051223;28;20532;-80
2024/04/04 05:33:29;;;;;;;7.20;6.80;;;11.70;1.00;;;;;;5050363;28;21044;-78
2024/04/04 05:35:55;;;;;;;6.57;6.30;;;11.70;91.40;;;;;;5051572;28;20547;-80
2024/04/04 05:38:23;;;;;;;6.20;6.00;;;11.70;99.90;;;;;;5052302;28;20539;-81
2024/04/04 05:40:49;;;;;;;7.80;7.10;;;11.70;1.00;;;;;;5050482;28;20455;-82
2024/04/04 05:43:17;;;;;;;6.70;6.50;;;11.70;99.90;;;;;;5052631;28;20449;-80
2024/04/04 05:45:44;;;;;;;5.90;5.70;;;11.70;99.90;;;;;;5062345;28;20465;-80
2024/04/04 05:48:11;;;;;;;5.80;5.50;;;11.60;99.90;;;;;;5054738;28;21303;-80
2024/04/04 05:50:37;;;;;;;6.10;5.80;;;11.60;99.90;;;;;;5054131;28;21007;-80
2024/04/04 05:53:05;;;;;;;5.87;5.53;;;11.70;99.90;;;;;;5051761;28;21046;-79
2024/04/04 05:55:32;;;;;;;6.37;6.00;;;11.70;99.90;;;;;;5053930;28;20451;-79
2024/04/04 05:57:59;;;;;;;5.83;5.60;;;11.60;99.90;;;;;;5051238;28;20660;-80
2024/04/04 06:00:26;;;;;;;5.97;5.80;;;11.70;99.90;;;;;;5057710;28;20667;-79
2024/04/04 06:02:54;;;;;;;6.03;5.83;;;11.70;99.90;;;;;;5050739;28;21012;-80
2024/04/04 06:05:20;;;;;;;6.17;5.77;;;11.70;99.90;;;;;;5052756;28;20999;-82
2024/04/04 06:07:47;;;;;;;6.13;5.73;;;11.70;99.90;;;;;;5055383;28;20479;-81
2024/04/04 06:10:14;;;;;;;6.00;5.70;;;11.80;99.90;;;;;;5051579;28;20495;-79
2024/04/04 06:12:41;;;;;;;6.60;6.07;;;11.80;14.70;;;;;;5050199;28;20443;-80
2024/04/04 06:15:07;;;;;;;5.93;5.63;;;11.90;1.00;;;;;;5034067;28;20582;-80
2024/04/04 06:17:36;;;;;;;6.97;6.40;;;12.00;1.00;;;;;;5052904;28;20456;-80
2024/04/04 06:20:04;;;;;;;6.30;5.63;;;12.00;1.00;;;;;;5042952;28;20477;-79
2024/04/04 06:22:31;;;;;;;6.30;5.90;;;12.00;1.00;;;;;;5051439;28;20442;-82
2024/04/04 06:24:58;;;;;;;6.10;5.80;;;12.00;1.00;;;;;;5050458;28;20465;-79
2024/04/04 06:27:25;;;;;;;6.00;5.70;;;12.10;99.90;;;;;;5055431;28;20520;-78
2024/04/04 06:29:51;;;;;;;7.13;5.43;;;12.20;99.90;;;;;;5055112;28;20586;-79
2024/04/04 06:32:18;;;;;;;6.17;5.87;;;12.20;99.90;;;;;;5051298;28;20557;-81
2024/04/04 06:34:46;;;;;;;6.30;5.97;;;12.20;99.90;;;;;;5059555;28;20551;-80
2024/04/04 06:37:16;;;;;;;5.77;5.57;;;12.20;99.90;;;;;;5061398;28;20517;-79
2024/04/04 06:39:42;;;;;;;5.90;5.53;;;12.20;99.90;;;;;;5055956;28;20579;-78
2024/04/04 06:42:10;;;;;;;6.47;5.83;;;12.30;99.90;;;;;;5056612;28;20504;-81
2024/04/04 06:44:36;;;;;;;6.27;5.80;;;12.30;99.90;;;;;;5057032;28;20534;-78
2024/04/04 06:47:03;;;;;;;8.20;5.60;;;12.40;99.90;;;;;;5056399;28;20542;-81
2024/04/04 06:49:29;;;;;;;5.57;5.30;;;12.50;99.90;;;;;;5058431;28;20601;-78
2024/04/04 06:51:58;;;;;;;6.27;5.70;;;12.60;99.90;;;;;;5056284;28;20511;-78
2024/04/04 06:54:24;;;;;;;5.70;5.30;;;12.70;26.30;;;;;;5053586;28;20479;-81
2024/04/04 06:56:51;;;;;;;5.30;5.00;;;12.80;1.00;;;;;;5053407;28;20876;-81
2024/04/04 06:59:17;;;;;;;4.90;4.50;;;13.00;11.70;;;;;;5057706;28;21155;-79
2024/04/04 07:01:45;;;;;;;5.30;5.00;;;13.10;1.00;;;;;;5056945;28;20528;-78
2024/04/04 07:04:12;;;;;;;5.83;5.23;;;13.20;1.00;;;;;;5058965;28;20501;-79
2024/04/04 07:06:39;;;;;;;5.03;4.73;;;13.30;1.00;;;;;;5056845;28;20456;-79
2024/04/04 07:09:07;;;;;;;6.67;5.00;;;13.40;1.00;;;;;;5054310;28;20470;-79
2024/04/04 07:11:35;;;;;;;5.53;5.20;;;13.40;1.00;;;;;;5054030;28;20511;-80
2024/04/04 07:14:01;;;;;;;5.20;4.73;;;13.50;1.00;;;;;;5060133;28;20570;-79
2024/04/04 07:16:28;;;;;;;4.80;4.60;;;13.60;1.00;;;;;;5054183;28;20452;-80
2024/04/04 07:18:55;;;;;;;4.37;4.17;;;13.70;1.00;;;;;;5055294;28;21044;-83
2024/04/04 07:21:22;;;;;;;4.77;4.33;;;13.70;1.00;;;;;;5057132;28;20457;-82
2024/04/04 07:23:48;;;;;;;5.00;4.60;;;13.60;1.00;;;;;;5051249;28;20485;-81
2024/04/04 07:26:16;;;;;;;4.30;4.10;;;13.60;1.00;;;;;;5052951;28;20463;-79
2024/04/04 07:28:43;;;;;;;4.77;4.37;;;13.60;1.00;;;;;;5052654;28;20506;-78
2024/04/04 07:31:10;;;;;;;4.30;4.20;;;13.50;1.00;;;;;;5057602;28;20503;-80
2024/04/04 07:33:36;;;;;;;4.70;4.50;;;13.40;1.00;;;;;;5057963;28;20488;-81
2024/04/04 07:36:04;;;;;;;5.97;4.20;;;13.40;1.00;;;;;;5057359;28;20679;-79
2024/04/04 07:38:31;;;;;;;5.00;4.13;;;13.30;1.00;;;;;;5055958;28;20510;-79
2024/04/04 07:41:04;;;;;;;5.17;4.80;;;13.30;1.00;;;;;;5053619;28;21007;-79
2024/04/04 07:43:33;;;;;;;5.47;5.07;;;13.30;1.00;;;;;;5056894;28;20441;-79
2024/04/04 07:46:02;;;;;;;6.00;5.60;;;13.30;1.00;;;;;;5059027;28;20483;-78
2024/04/04 07:48:28;;;;;;;4.87;4.47;;;13.30;1.00;;;;;;5057138;28;20514;-80
2024/04/04 07:50:56;;;;;;;6.43;4.90;;;13.20;55.30;;;;;;5056247;28;20452;-81
2024/04/04 07:53:22;;;;;;;6.03;5.60;;;13.20;21.20;;;;;;5057296;28;20579;-82
2024/04/04 07:55:49;;;;;;;6.57;5.37;;;13.10;35.10;;;;;;5053517;28;20489;-83
2024/04/04 07:58:15;;;;;;;6.03;5.50;;;13.10;21.00;;;;;;5052952;28;20457;-79
2024/04/04 08:00:44;;;;;;;5.07;4.77;;;13.10;81.60;;;;;;5054353;28;20479;-78
2024/04/04 08:03:10;;;;;;;7.00;5.43;;;13.10;99.90;;;;;;5055332;28;20547;-79
2024/04/04 08:05:38;;;;;;;5.30;4.80;;;13.10;99.90;;;;;;5051603;28;20473;-81
2024/04/04 08:08:05;;;;;;;4.97;4.57;;;13.00;99.90;;;;;;5054834;28;20534;-80
2024/04/04 08:10:33;;;;;;;5.77;5.47;;;13.00;99.90;;;;;;5054467;28;20563;-79
2024/04/04 08:13:00;;;;;;;5.90;5.60;;;12.90;99.90;;;;;;5055331;28;20525;-80
2024/04/04 08:15:27;;;;;;;5.40;4.90;;;12.90;99.90;;;;;;5054754;28;20530;-80
2024/04/04 08:17:54;;;;;;;5.83;5.40;;;12.90;1.00;;;;;;5056154;28;20455;-80
2024/04/04 08:20:23;;;;;;;6.20;5.70;;;12.90;99.90;;;;;;5055474;28;20479;-81
2024/04/04 08:22:50;;;;;;;6.30;5.80;;;12.90;1.00;;;;;;5054611;28;20481;-81
2024/04/04 08:25:18;;;;;;;5.17;4.93;;;12.90;1.00;;;;;;5051340;28;20547;-80
2024/04/04 08:27:45;;;;;;;5.70;5.30;;;12.90;1.00;;;;;;5051520;28;20484;-78
2024/04/04 08:30:12;;;;;;;5.73;5.10;;;12.80;1.00;;;;;;5061911;28;20482;-79
2024/04/04 08:32:39;;;;;;;5.50;5.17;;;12.90;1.00;;;;;;5050876;28;20475;-80
2024/04/04 08:35:09;;;;;;;5.30;4.90;;;12.80;1.00;;;;;;5054049;28;20453;-81
2024/04/04 08:37:35;;;;;;;6.80;5.23;;;12.80;1.00;;;;;;5056329;28;20853;-81
2024/04/04 08:40:03;;;;;;;5.80;5.50;;;12.80;1.00;;;;;;5053350;28;20499;-80
2024/04/04 08:42:30;;;;;;;5.53;5.33;;;12.80;7.40;;;;;;5054427;28;20488;-80
2024/04/04 08:44:58;;;;;;;5.83;5.43;;;12.80;1.00;;;;;;5050527;28;20467;-80
2024/04/04 08:47:26;;;;;;;6.40;5.50;;;12.80;1.00;;;;;;5056237;28;20493;-79
2024/04/04 08:49:53;;;;;;;6.00;5.60;;;12.80;1.00;;;;;;5053290;28;20630;-81
2024/04/04 08:52:21;;;;;;;5.90;5.47;;;12.80;1.00;;;;;;5054739;28;21517;-81
2024/04/04 08:54:48;;;;;;;5.43;5.03;;;12.80;1.00;;;;;;5059670;28;20524;-81
2024/04/04 08:57:17;;;;;;;5.30;5.10;;;12.80;1.00;;;;;;5051742;28;20857;-80
2024/04/04 08:59:55;;;;;;;5.30;4.90;;;12.80;1.00;;;;;;5055989;28;20985;-83
2024/04/04 09:02:21;;;;;;;5.50;5.10;;;12.90;1.00;;;;;;5052169;28;20580;-81
2024/04/04 09:04:48;;;;;;;5.50;5.20;;;12.90;1.00;;;;;;5054038;28;20532;-80
2024/04/04 09:07:15;;;;;;;5.47;5.17;;;13.00;1.00;;;;;;5055671;28;20455;-79
2024/04/04 09:09:46;;;;;;;5.27;5.07;;;13.00;99.90;;;;;;5054816;28;20510;-79
2024/04/04 09:12:16;;;;;;;6.47;5.97;;;13.00;99.90;;;;;;5051195;28;20566;-82
2024/04/04 09:14:43;;;;;;;5.40;5.10;;;13.10;99.90;;;;;;5057119;28;20572;-80
2024/04/04 09:17:10;;;;;;;9.87;5.90;;;13.10;99.90;;;;;;5052952;28;20495;-79
2024/04/04 09:19:38;;;;;;;4.90;4.70;;;13.10;99.90;;;;;;5052492;28;20993;-82
2024/04/04 09:22:06;;;;;;;5.00;4.80;;;13.20;99.90;;;;;;5054116;28;20545;-80
2024/04/04 09:24:33;;;;;;;5.50;5.10;;;13.20;99.90;;;;;;5063427;28;20549;-80
2024/04/04 09:27:02;;;;;;;5.40;5.00;;;13.20;99.90;;;;;;5062948;28;20534;-80
2024/04/04 09:29:30;;;;;;;5.20;5.00;;;13.30;99.90;;;;;;5048815;28;20627;-81
2024/04/04 09:31:58;;;;;;;5.97;5.53;;;13.30;99.90;;;;;;5053851;28;20477;-80
2024/04/04 09:34:28;;;;;;;5.03;4.83;;;13.30;99.90;;;;;;5053470;28;20442;-80
2024/04/04 09:36:54;;;;;;;5.37;5.17;;;13.30;1.00;;;;;;5051846;28;20472;-80
2024/04/04 09:39:25;;;;;;;5.13;5.00;;;13.30;99.90;;;;;;5052867;28;20468;-80
2024/04/04 09:41:53;;;;;;;5.17;4.83;;;13.30;99.90;;;;;;5053137;28;20434;-79
2024/04/04 09:44:21;;;;;;;6.03;5.63;;;13.40;1.00;;;;;;5051555;28;20508;-80
2024/04/04 09:46:48;;;;;;;5.97;5.47;;;13.30;99.90;;;;;;5050966;28;20450;-81
2024/04/04 09:49:18;;;;;;;6.57;5.33;;;13.30;99.90;;;;;;5054762;28;20463;-80
2024/04/04 09:51:49;;;;;;;6.20;5.80;;;13.30;99.90;;;;;;5055550;28;20467;-80
2024/04/04 09:54:17;;;;;;;6.23;5.83;;;13.40;99.90;;;;;;5052701;28;20467;-79
2024/04/04 09:56:44;;;;;;;5.33;5.03;;;13.40;99.90;;;;;;5061103;28;20505;-81
2024/04/04 09:59:11;;;;;;;4.97;4.80;;;13.40;99.90;;;;;;5052412;28;21045;-80
2024/04/04 10:01:39;;;;;;;6.10;5.60;;;13.30;99.90;;;;;;5052573;28;20475;-80
2024/04/04 10:04:07;;;;;;;5.73;5.43;;;13.40;1.00;;;;;;5053074;28;21326;-80
2024/04/04 10:06:35;;;;;;;6.27;5.60;;;13.30;1.00;;;;;;5048462;28;20849;-78
2024/04/04 10:09:15;;;;;;;6.20;5.93;;;13.30;14.90;;;;;;5056860;28;21068;-80
2024/04/04 10:11:42;;;;;;;6.17;5.77;;;13.30;99.90;;;;;;5056320;28;20823;-79
2024/04/04 10:14:16;;;;;;;6.57;6.20;;;13.30;99.90;;;;;;5056335;28;20482;-83
2024/04/04 10:16:50;;;;;;;6.60;6.30;;;13.30;99.90;;;;;;5064150;28;20589;-80
2024/04/04 10:19:19;;;;;;;6.57;6.27;;;13.40;1.00;;;;;;5059155;28;20512;-81
2024/04/04 10:21:45;;;;;;;6.93;6.43;;;13.40;1.00;;;;;;5062940;28;20440;-81
2024/04/04 10:24:21;;;;;;;7.23;6.93;;;13.40;1.00;;;;;;5060033;28;20510;-80
2024/04/04 10:26:51;;;;;;;6.80;6.40;;;13.40;1.00;;;;;;5062860;28;20468;-81
2024/04/04 10:29:19;;;;;;;7.00;6.70;;;13.40;1.00;;;;;;5060655;28;20511;-81
2024/04/04 10:31:46;;;;;;;6.80;6.60;;;13.40;1.00;;;;;;5064928;28;20503;-80
2024/04/04 10:34:14;;;;;;;7.07;6.77;;;13.40;1.00;;;;;;5062549;28;20469;-78
2024/04/04 10:36:42;;;;;;;7.37;7.00;;;13.30;1.00;;;;;;5055634;28;20532;-80
2024/04/04 10:39:16;;;;;;;7.10;6.80;;;13.30;11.10;;;;;;5055988;28;20591;-78
2024/04/04 10:41:44;;;;;;;9.17;7.50;;;13.30;99.90;;;;;;5052785;28;20613;-80
2024/04/04 10:44:13;;;;;;;7.00;6.70;;;13.30;64.90;;;;;;5056277;28;20558;-78
2024/04/04 10:46:44;;;;;;;7.33;6.93;;;13.30;1.00;;;;;;5055463;28;20545;-84
2024/04/04 10:49:13;;;;;;;7.07;6.60;;;13.30;1.00;;;;;;5053108;28;20512;-78
2024/04/04 10:51:42;;;;;;;8.40;7.60;;;13.30;99.90;;;;;;5054806;28;20560;-81
2024/04/04 10:54:09;;;;;;;7.30;6.97;;;13.30;1.00;;;;;;5058270;28;21076;-78
2024/04/04 10:56:36;;;;;;;7.50;7.20;;;13.30;99.90;;;;;;5053463;28;20994;-79
2024/04/04 10:59:03;;;;;;;9.83;7.00;;;13.30;99.90;;;;;;5051343;28;20561;-79
2024/04/04 11:01:29;;;;;;;7.53;7.23;;;13.40;99.90;;;;;;5051407;28;20572;-78
2024/04/04 11:03:56;;;;;;;7.60;7.20;;;13.40;1.00;;;;;;5056699;28;20576;-81
2024/04/04 11:06:27;;;;;;;7.40;7.00;;;13.50;99.90;;;;;;5064287;28;20459;-80
2024/04/04 11:08:55;;;;;;;7.83;7.50;;;13.50;99.90;;;;;;5052933;28;20482;-80
2024/04/04 11:11:23;;;;;;;8.13;7.60;;;13.60;1.00;;;;;;5054654;28;20914;-79
2024/04/04 11:13:51;;;;;;;8.00;7.57;;;13.70;99.90;;;;;;5056028;28;21126;-80
2024/04/04 11:16:19;;;;;;;7.50;7.00;;;13.70;1.00;;;;;;5054003;28;20483;-80
2024/04/04 11:18:46;;;;;;;8.00;7.70;;;13.70;1.00;;;;;;5052540;28;20998;-80
2024/04/04 11:21:12;;;;;;;7.67;7.37;;;13.60;99.90;;;;;;5035878;28;20542;-79
2024/04/04 11:23:42;;;;;;;7.40;7.00;;;13.60;99.90;;;;;;5057601;28;20551;-80
2024/04/04 11:26:09;;;;;;;7.40;7.10;;;13.70;1.00;;;;;;5055519;28;20543;-79
2024/04/04 11:28:36;;;;;;;7.17;6.80;;;13.70;99.90;;;;;;5053357;28;20573;-80
2024/04/04 11:31:04;;;;;;;7.30;6.90;;;13.60;1.00;;;;;;5055508;28;20555;-80
2024/04/04 11:33:31;;;;;;;7.90;7.50;;;13.60;84.10;;;;;;5055202;28;20481;-80
2024/04/04 11:36:00;;;;;;;7.10;6.90;;;13.60;97.50;;;;;;5053913;28;20524;-81
2024/04/04 11:38:27;;;;;;;8.07;7.77;;;13.60;99.90;;;;;;5055047;28;20560;-78
2024/04/04 11:40:55;;;;;;;8.33;7.77;;;13.50;99.90;;;;;;5054904;28;20457;-79
2024/04/04 11:43:23;;;;;;;8.07;7.37;;;13.60;99.90;;;;;;5054831;28;20488;-81
2024/04/04 11:45:50;;;;;;;8.00;7.20;;;13.60;99.90;;;;;;5054032;28;21341;-82
2024/04/04 11:48:17;;;;;;;7.00;6.67;;;13.60;1.00;;;;;;5053366;28;20457;-78
2024/04/04 11:50:44;;;;;;;7.53;7.13;;;13.50;58.30;;;;;;5054025;28;20528;-77
2024/04/04 11:53:11;;;;;;;7.20;6.90;;;13.60;80.90;;;;;;5054223;28;20479;-79
2024/04/04 11:55:38;;;;;;;7.20;6.70;;;13.60;99.90;;;;;;5056588;28;20474;-80
2024/04/04 11:58:07;;;;;;;6.70;6.40;;;13.60;99.90;;;;;;5052833;28;20442;-78
2024/04/04 12:00:33;;;;;;;6.50;6.30;;;13.60;1.00;;;;;;5037862;28;20509;-82
2024/04/04 12:03:03;;;;;;;6.70;6.30;;;13.60;26.90;;;;;;5052296;28;20957;-80
2024/04/04 12:05:30;;;;;;;7.13;6.67;;;13.70;99.90;;;;;;5055091;28;20543;-78
2024/04/04 12:07:57;;;;;;;6.97;6.40;;;13.80;71.60;;;;;;5053743;28;21395;-80
2024/04/04 12:10:23;;;;;;;7.30;7.00;;;13.80;99.90;;;;;;5052054;28;20948;-79
2024/04/04 12:12:50;;;;;;;8.03;7.13;;;13.90;1.00;;;;;;5059057;28;20478;-80
2024/04/04 12:15:18;;;;;;;6.60;6.40;;;13.90;99.90;;;;;;5073140;28;20542;-78
2024/04/04 12:17:47;;;;;;;6.93;6.63;;;14.00;99.90;;;;;;5050307;28;20553;-81
2024/04/04 12:20:19;;;;;;;7.27;6.90;;;13.90;99.90;;;;;;5051914;28;20517;-80
2024/04/04 12:22:46;;;;;;;6.40;6.20;;;14.00;99.90;;;;;;5054667;28;20542;-79
2024/04/04 12:25:15;;;;;;;6.57;6.17;;;14.00;99.90;;;;;;5052657;28;20546;-80
2024/04/04 12:27:42;;;;;;;5.93;5.73;;;13.90;99.90;;;;;;5051943;28;20531;-80
2024/04/04 12:30:10;;;;;;;6.23;5.93;;;13.90;99.90;;;;;;5055982;28;20973;-80
2024/04/04 12:32:37;;;;;;;5.93;5.73;;;13.90;99.90;;;;;;5054329;28;20541;-79
2024/04/04 12:35:05;;;;;;;6.50;5.87;;;13.80;99.90;;;;;;5050996;28;20442;-79
2024/04/04 12:37:31;;;;;;;5.73;5.43;;;13.80;99.90;;;;;;5054778;28;20462;-79
2024/04/04 12:39:59;;;;;;;5.40;5.20;;;13.80;99.90;;;;;;5054015;28;20485;-78
2024/04/04 12:42:25;;;;;;;5.90;5.60;;;13.80;99.90;;;;;;5052865;28;20444;-81
2024/04/04 12:44:52;;;;;;;5.73;5.47;;;13.80;99.90;;;;;;5061288;28;20444;-81
2024/04/04 12:47:19;;;;;;;5.43;5.10;;;13.80;99.90;;;;;;5053830;28;20461;-80
2024/04/04 12:49:48;;;;;;;7.03;6.70;;;13.90;99.90;;;;;;5053198;28;20468;-81
2024/04/04 12:52:14;;;;;;;5.20;5.10;;;13.90;99.90;;;;;;5034455;28;20469;-79